createdAt,value
2023-04-27T00:00:37.133Z,102093.59
2023-04-27T00:02:38.815Z,102088.31
2023-04-27T00:04:40.725Z,102089.13
2023-04-27T00:06:43.265Z,102086.50
2023-04-27T00:08:44.733Z,102085.56
2023-04-27T00:10:46.345Z,102083.78
2023-04-27T00:12:47.840Z,102078.50
2023-04-27T00:14:49.653Z,102085.41
2023-04-27T00:16:51.195Z,102081.84
2023-04-27T00:18:52.736Z,102091.34
2023-04-27T00:20:54.224Z,102088.63
2023-04-27T00:22:55.816Z,102078.09
2023-04-27T00:24:57.263Z,102076.28
2023-04-27T00:26:58.747Z,102079.69
2023-04-27T00:29:00.209Z,102075.25
2023-04-27T00:31:03.616Z,102077.78
2023-04-27T00:33:05.964Z,102085.56
2023-04-27T00:35:08.033Z,102083.69
2023-04-27T00:37:10.048Z,102084.50
2023-04-27T00:39:12.401Z,102081.03
2023-04-27T00:41:13.967Z,102087.13
2023-04-27T00:43:15.442Z,102087.09
2023-04-27T00:45:17.124Z,102088.75
2023-04-27T00:47:18.939Z,102094.75
2023-04-27T00:49:21.537Z,102091.19
2023-04-27T00:51:27.708Z,102094.66
2023-04-27T00:53:29.937Z,102101.56
2023-04-27T00:55:31.529Z,102104.94
2023-04-27T00:57:34.027Z,102101.44
2023-04-27T00:59:35.687Z,102107.56
2023-04-27T01:01:37.266Z,102104.06
2023-04-27T01:03:38.839Z,102106.66
2023-04-27T01:05:41.813Z,102114.44
2023-04-27T01:07:43.774Z,102121.25
2023-04-27T01:09:46.644Z,102113.41
2023-04-27T01:11:48.130Z,102119.41
2023-04-27T01:13:49.726Z,102120.19
2023-04-27T01:15:51.317Z,102123.66
2023-04-27T01:18:03.004Z,102122.81
2023-04-27T01:20:09.763Z,102118.38
2023-04-27T01:22:11.243Z,102127.00
2023-04-27T01:24:12.726Z,102117.41
2023-04-27T01:26:16.369Z,102125.22
2023-04-27T01:28:17.877Z,102131.34
2023-04-27T01:30:19.407Z,102134.72
2023-04-27T01:32:21.174Z,102134.66
2023-04-27T01:34:22.848Z,102135.41
2023-04-27T01:36:24.333Z,102141.38
2023-04-27T01:38:25.975Z,102142.22
2023-04-27T01:40:27.536Z,102149.22
2023-04-27T01:42:29.080Z,102141.38
2023-04-27T01:44:30.691Z,102140.53
2023-04-27T01:46:32.221Z,102137.13
2023-04-27T01:48:34.552Z,102140.53
2023-04-27T01:50:36.122Z,102144.84
2023-04-27T01:52:37.879Z,102137.78
2023-04-27T01:54:39.411Z,102144.72
2023-04-27T01:56:41.880Z,102146.44
2023-04-27T01:58:43.440Z,102144.69
2023-04-27T02:00:44.894Z,102148.97
2023-04-27T02:02:46.522Z,102145.44
2023-04-27T02:04:48.257Z,102147.09
2023-04-27T02:06:49.757Z,102147.88
2023-04-27T02:08:51.678Z,102150.44
2023-04-27T02:10:53.193Z,102155.56
2023-04-27T02:12:54.759Z,102151.19
2023-04-27T02:14:56.338Z,102152.03
2023-04-27T02:16:57.797Z,102155.47
2023-04-27T02:18:59.472Z,102147.53
2023-04-27T02:21:01.160Z,102146.59
2023-04-27T02:23:02.684Z,102152.69
2023-04-27T02:25:04.474Z,102155.25
2023-04-27T02:27:06.138Z,102149.09
2023-04-27T02:29:07.980Z,102148.16
2023-04-27T02:31:10.184Z,102144.59
2023-04-27T02:33:11.885Z,102154.97
2023-04-27T02:35:13.555Z,102148.84
2023-04-27T02:37:15.573Z,102147.91
2023-04-27T02:39:17.097Z,102146.94
2023-04-27T02:41:18.576Z,102151.28
2023-04-27T02:43:20.024Z,102141.69
2023-04-27T02:45:21.624Z,102146.03
2023-04-27T02:47:23.066Z,102145.06
2023-04-27T02:49:24.523Z,102151.09
2023-04-27T02:51:26.158Z,102152.75
2023-04-27T02:53:27.612Z,102159.63
2023-04-27T02:55:29.840Z,102157.03
2023-04-27T02:57:31.781Z,102155.25
2023-04-27T02:59:33.251Z,102158.72
2023-04-27T03:01:34.732Z,102145.59
2023-04-27T03:03:36.317Z,102151.66
2023-04-27T03:05:38.176Z,102146.41
2023-04-27T03:07:39.760Z,102142.91
2023-04-27T03:09:41.419Z,102145.44
2023-04-27T03:11:42.861Z,102138.41
2023-04-27T03:13:44.357Z,102141.78
2023-04-27T03:15:45.809Z,102144.25
2023-04-27T03:17:47.298Z,102149.34
2023-04-27T03:19:49.294Z,102144.09
2023-04-27T03:21:51.023Z,102148.38
2023-04-27T03:23:53.152Z,102150.88
2023-04-27T03:25:54.591Z,102143.88
2023-04-27T03:27:56.430Z,102143.78
2023-04-27T03:29:57.894Z,102148.88
2023-04-27T03:31:59.395Z,102150.53
2023-04-27T03:34:00.973Z,102151.34
2023-04-27T03:36:04.377Z,102153.97
2023-04-27T03:38:05.902Z,102153.91
2023-04-27T03:40:08.253Z,102156.47
2023-04-27T03:42:09.693Z,102153.03
2023-04-27T03:44:11.157Z,102159.13
2023-04-27T03:46:12.667Z,102160.00
2023-04-27T03:48:15.334Z,102162.66
2023-04-27T03:50:16.875Z,102160.97
2023-04-27T03:52:18.337Z,102163.56
2023-04-27T03:54:19.987Z,102164.47
2023-04-27T03:56:21.530Z,102165.25
2023-04-27T03:58:23.013Z,102157.44
2023-04-27T04:00:24.761Z,102160.09
2023-04-27T04:02:26.354Z,102161.69
2023-04-27T04:04:28.144Z,102160.00
2023-04-27T04:06:29.722Z,102153.97
2023-04-27T04:08:32.969Z,102163.53
2023-04-27T04:10:34.520Z,102159.16
2023-04-27T04:12:36.642Z,102156.56
2023-04-27T04:14:38.137Z,102160.94
2023-04-27T04:16:39.631Z,102156.56
2023-04-27T04:18:41.185Z,102156.56
2023-04-27T04:20:42.694Z,102163.53
2023-04-27T04:22:44.353Z,102166.13
2023-04-27T04:24:45.852Z,102158.31
2023-04-27T04:26:48.602Z,102162.69
2023-04-27T04:28:50.079Z,102170.50
2023-04-27T04:30:51.740Z,102169.72
2023-04-27T04:32:53.245Z,102177.56
2023-04-27T04:34:54.757Z,102175.00
2023-04-27T04:36:57.664Z,102178.59
2023-04-27T04:38:59.234Z,102176.94
2023-04-27T04:41:01.182Z,102177.09
2023-04-27T04:43:02.949Z,102179.06
2023-04-27T04:45:05.075Z,102181.09
2023-04-27T04:47:06.561Z,102187.47
2023-04-27T04:49:08.252Z,102186.94
2023-04-27T04:51:09.716Z,102178.50
2023-04-27T04:53:11.158Z,102179.63
2023-04-27T04:55:12.756Z,102185.06
2023-04-27T04:57:14.257Z,102179.19
2023-04-27T04:59:16.475Z,102181.97
2023-04-27T05:01:18.335Z,102191.69
2023-04-27T05:03:19.872Z,102188.34
2023-04-27T05:05:21.406Z,102179.00
2023-04-27T05:07:24.914Z,102186.13
2023-04-27T05:09:26.649Z,102186.06
2023-04-27T05:11:28.188Z,102187.81
2023-04-27T05:13:29.757Z,102187.75
2023-04-27T05:15:31.321Z,102183.28
2023-04-27T05:17:32.921Z,102184.13
2023-04-27T05:19:34.425Z,102182.38
2023-04-27T05:21:35.877Z,102188.47
2023-04-27T05:23:37.566Z,102192.06
2023-04-27T05:25:41.845Z,102187.84
2023-04-27T05:27:43.435Z,102188.84
2023-04-27T05:29:44.899Z,102201.16
2023-04-27T05:31:46.437Z,102203.00
2023-04-27T05:33:47.952Z,102202.22
2023-04-27T05:35:49.410Z,102209.31
2023-04-27T05:37:51.109Z,102207.72
2023-04-27T05:39:52.565Z,102211.31
2023-04-27T05:41:54.074Z,102211.38
2023-04-27T05:43:55.839Z,102211.44
2023-04-27T05:45:57.321Z,102213.28
2023-04-27T05:47:58.988Z,102212.56
2023-04-27T05:50:00.592Z,102207.44
2023-04-27T05:52:02.096Z,102207.66
2023-04-27T05:54:03.726Z,102214.81
2023-04-27T05:56:06.954Z,102213.31
2023-04-27T05:58:09.415Z,102205.69
2023-04-27T06:00:12.633Z,102209.34
2023-04-27T06:02:14.258Z,102211.19
2023-04-27T06:04:16.188Z,102217.38
2023-04-27T06:06:17.874Z,102220.13
2023-04-27T06:08:19.379Z,102222.03
2023-04-27T06:10:20.982Z,102221.31
2023-04-27T06:12:22.480Z,102229.34
2023-04-27T06:14:24.218Z,102230.38
2023-04-27T06:16:25.818Z,102230.56
2023-04-27T06:18:27.418Z,102227.25
2023-04-27T06:20:29.008Z,102234.41
2023-04-27T06:22:30.853Z,102238.00
2023-04-27T06:24:32.506Z,102234.66
2023-04-27T06:26:34.073Z,102241.81
2023-04-27T06:28:35.592Z,102241.91
2023-04-27T06:30:38.905Z,102250.81
2023-04-27T06:32:41.321Z,102243.16
2023-04-27T06:34:42.775Z,102237.19
2023-04-27T06:36:44.266Z,102238.19
2023-04-27T06:38:45.772Z,102244.53
2023-04-27T06:40:51.119Z,102243.78
2023-04-27T06:42:53.003Z,102237.81
2023-04-27T06:44:55.972Z,102240.53
2023-04-27T06:46:57.417Z,102237.03
2023-04-27T06:48:58.927Z,102236.25
2023-04-27T06:51:00.679Z,102234.63
2023-04-27T06:53:02.133Z,102235.63
2023-04-27T06:55:03.833Z,102239.25
2023-04-27T06:57:06.638Z,102233.22
2023-04-27T06:59:08.855Z,102232.47
2023-04-27T07:01:10.407Z,102228.22
2023-04-27T07:03:12.359Z,102221.28
2023-04-27T07:05:14.217Z,102227.53
2023-04-27T07:07:15.727Z,102225.03
2023-04-27T07:09:27.050Z,102220.78
2023-04-27T07:11:29.178Z,102222.59
2023-04-27T07:13:30.714Z,102225.25
2023-04-27T07:15:32.278Z,102218.31
2023-04-27T07:17:34.059Z,102221.91
2023-04-27T07:19:36.830Z,102223.69
2023-04-27T07:21:38.329Z,102221.13
2023-04-27T07:23:41.598Z,102222.94
2023-04-27T07:25:43.527Z,102220.38
2023-04-27T07:27:45.352Z,102221.31
2023-04-27T07:29:47.233Z,102213.50
2023-04-27T07:31:49.995Z,102226.66
2023-04-27T07:33:53.423Z,102235.47
2023-04-27T07:35:55.119Z,102224.13
2023-04-27T07:37:56.756Z,102228.56
2023-04-27T07:39:59.916Z,102230.34
2023-04-27T07:42:03.414Z,102231.28
2023-04-27T07:44:04.946Z,102229.56
2023-04-27T07:46:06.457Z,102230.47
2023-04-27T07:48:08.260Z,102225.28
2023-04-27T07:50:11.021Z,102216.59
2023-04-27T07:52:12.809Z,102229.78
2023-04-27T07:54:14.658Z,102241.25
2023-04-27T07:56:16.339Z,102230.72
2023-04-27T07:58:19.079Z,102237.72
2023-04-27T08:00:21.093Z,102236.84
2023-04-27T08:02:22.871Z,102234.22
2023-04-27T08:04:24.669Z,102229.84
2023-04-27T08:06:28.892Z,102228.09
2023-04-27T08:08:31.087Z,102232.50
2023-04-27T08:10:32.531Z,102223.78
2023-04-27T08:12:34.551Z,102226.50
2023-04-27T08:14:36.502Z,102222.16
2023-04-27T08:16:38.005Z,102220.44
2023-04-27T08:18:39.527Z,102208.19
2023-04-27T08:20:41.068Z,102215.25
2023-04-27T08:22:42.913Z,102205.59
2023-04-27T08:24:44.403Z,102206.47
2023-04-27T08:26:45.854Z,102209.16
2023-04-27T08:28:47.560Z,102207.41
2023-04-27T08:30:49.204Z,102203.84
2023-04-27T08:32:50.724Z,102209.09
2023-04-27T08:34:52.249Z,102216.13
2023-04-27T08:36:56.957Z,102219.63
2023-04-27T08:38:58.449Z,102211.72
2023-04-27T08:41:07.443Z,102216.97
2023-04-27T08:43:19.722Z,102214.38
2023-04-27T08:45:23.667Z,102212.66
2023-04-27T08:47:35.077Z,102217.13
2023-04-27T08:49:43.820Z,102211.00
2023-04-27T08:51:45.410Z,102212.78
2023-04-27T08:53:50.516Z,102203.16
2023-04-27T08:55:52.456Z,102211.06
2023-04-27T08:57:58.416Z,102212.84
2023-04-27T09:00:00.966Z,102205.81
2023-04-27T09:02:04.195Z,102213.72
2023-04-27T09:06:09.193Z,102211.97
2023-04-27T09:08:10.901Z,102212.84
2023-04-27T09:10:12.926Z,102219.84
2023-04-27T09:12:19.021Z,102215.47
2023-04-27T09:14:22.900Z,102223.34
2023-04-27T09:16:26.292Z,102211.91
2023-04-27T09:18:28.033Z,102218.91
2023-04-27T09:20:30.210Z,102217.16
2023-04-27T09:22:31.780Z,102212.81
2023-04-27T09:24:33.870Z,102208.44
2023-04-27T09:26:35.363Z,102211.06
2023-04-27T09:28:40.430Z,102210.22
2023-04-27T09:30:41.898Z,102207.56
2023-04-27T09:32:58.866Z,102209.31
2023-04-27T09:35:00.380Z,102206.66
2023-04-27T09:37:02.054Z,102213.69
2023-04-27T09:39:06.852Z,102209.28
2023-04-27T09:41:09.066Z,102209.25
2023-04-27T09:43:10.800Z,102211.00
2023-04-27T09:45:13.322Z,102201.31
2023-04-27T09:47:15.150Z,102214.53
2023-04-27T09:49:18.923Z,102212.81
2023-04-27T09:51:20.551Z,102209.28
2023-04-27T09:53:30.545Z,102218.09
2023-04-27T09:55:37.771Z,102211.94
2023-04-27T09:57:51.595Z,102214.56
2023-04-27T10:00:17.993Z,102210.13
2023-04-27T10:02:24.863Z,102213.63
2023-04-27T10:05:02.835Z,102210.97
2023-04-27T10:07:14.998Z,102216.22
2023-04-27T10:09:23.429Z,102210.03
2023-04-27T10:11:41.642Z,102211.75
2023-04-27T10:13:54.371Z,102208.25
2023-04-27T10:15:56.466Z,102204.69
2023-04-27T10:18:05.313Z,102212.56
2023-04-27T10:20:09.037Z,102216.94
2023-04-27T10:22:10.659Z,102213.38
2023-04-27T10:24:12.200Z,102212.44
2023-04-27T10:26:14.441Z,102209.69
2023-04-27T10:28:21.314Z,102208.69
2023-04-27T10:30:26.072Z,102213.84
2023-04-27T10:32:29.277Z,102219.06
2023-04-27T10:34:34.942Z,102205.78
2023-04-27T10:36:40.971Z,102204.75
2023-04-27T10:38:42.623Z,102207.38
2023-04-27T10:40:57.772Z,102203.09
2023-04-27T10:43:08.515Z,102212.84
2023-04-27T10:45:12.860Z,102204.16
2023-04-27T10:47:22.117Z,102203.31
2023-04-27T10:49:24.089Z,102201.44
2023-04-27T10:51:26.928Z,102201.31
2023-04-27T10:53:35.522Z,102196.34
2023-04-27T10:55:37.437Z,102192.97
2023-04-27T10:57:46.869Z,102192.72
2023-04-27T10:59:51.210Z,102191.75
2023-04-27T11:01:52.702Z,102207.09
2023-04-27T11:03:58.977Z,102196.03
2023-04-27T11:06:04.198Z,102189.81
2023-04-27T11:08:14.245Z,102192.69
2023-04-27T11:10:20.121Z,102183.31
2023-04-27T11:12:21.808Z,102181.50
2023-04-27T11:14:23.329Z,102183.94
2023-04-27T11:16:24.789Z,102183.66
2023-04-27T11:18:29.658Z,102173.59
2023-04-27T11:20:31.283Z,102179.78
2023-04-27T11:22:32.796Z,102182.44
2023-04-27T11:24:34.298Z,102184.34
2023-04-27T11:26:35.907Z,102170.59
2023-04-27T11:28:38.123Z,102175.50
2023-04-27T11:30:39.659Z,102176.13
2023-04-27T11:32:41.171Z,102171.38
2023-04-27T11:34:53.736Z,102171.84
2023-04-27T11:37:16.821Z,102163.78
2023-04-27T11:39:19.630Z,102160.19
2023-04-27T11:41:21.152Z,102156.91
2023-04-27T11:43:26.106Z,102158.00
2023-04-27T11:45:28.095Z,102168.03
2023-04-27T11:47:31.421Z,102166.47
2023-04-27T11:49:32.938Z,102162.16
2023-04-27T11:51:35.241Z,102164.06
2023-04-27T11:53:39.339Z,102164.81
2023-04-27T11:55:41.540Z,102167.06
2023-04-27T11:57:43.244Z,102164.19
2023-04-27T11:59:44.781Z,102165.97
2023-04-27T12:01:46.752Z,102173.25
2023-04-27T12:03:48.392Z,102173.03
2023-04-27T12:05:51.389Z,102170.56
2023-04-27T12:07:52.998Z,102178.84
2023-04-27T12:09:54.513Z,102176.78
2023-04-27T12:11:56.264Z,102180.88
2023-04-27T12:13:58.635Z,102178.66
2023-04-27T12:16:01.021Z,102176.28
2023-04-27T12:18:02.800Z,102174.47
2023-04-27T12:20:05.253Z,102175.47
2023-04-27T12:22:07.119Z,102177.88
2023-04-27T12:24:08.619Z,102176.38
2023-04-27T12:26:11.954Z,102169.78
2023-04-27T12:28:18.953Z,102174.47
2023-04-27T12:30:22.633Z,102174.44
2023-04-27T12:32:24.088Z,102177.13
2023-04-27T12:34:26.021Z,102172.56
2023-04-27T12:36:27.557Z,102179.75
2023-04-27T12:38:29.254Z,102173.44
2023-04-27T12:40:30.739Z,102173.59
2023-04-27T12:42:32.582Z,102179.91
2023-04-27T12:44:34.104Z,102179.28
2023-04-27T12:46:35.727Z,102170.75
2023-04-27T12:48:37.278Z,102179.59
2023-04-27T12:50:38.808Z,102183.13
2023-04-27T12:52:40.253Z,102172.53
2023-04-27T12:54:41.742Z,102174.75
2023-04-27T12:56:43.330Z,102174.47
2023-04-27T12:58:45.561Z,102167.00
2023-04-27T13:00:47.046Z,102166.06
2023-04-27T13:02:48.660Z,102173.66
2023-04-27T13:04:50.364Z,102172.94
2023-04-27T13:06:52.036Z,102168.97
2023-04-27T13:08:53.469Z,102169.94
2023-04-27T13:10:54.936Z,102168.44
2023-04-27T13:12:56.449Z,102167.47
2023-04-27T13:14:57.893Z,102164.22
2023-04-27T13:16:59.406Z,102164.56
2023-04-27T13:19:00.893Z,102166.97
2023-04-27T13:21:03.514Z,102159.31
2023-04-27T13:23:05.155Z,102160.56
2023-04-27T13:25:07.071Z,102158.69
2023-04-27T13:27:08.597Z,102158.75
2023-04-27T13:29:10.059Z,102158.50
2023-04-27T13:31:11.876Z,102162.41
2023-04-27T13:33:22.649Z,102151.00
2023-04-27T13:35:24.991Z,102149.63
2023-04-27T13:37:27.131Z,102151.84
2023-04-27T13:39:28.862Z,102151.13
2023-04-27T13:41:31.290Z,102138.94
2023-04-27T13:43:33.053Z,102157.81
2023-04-27T13:45:34.771Z,102152.59
2023-04-27T13:47:38.877Z,102151.63
2023-04-27T13:49:40.418Z,102148.06
2023-04-27T13:51:41.894Z,102139.28
2023-04-27T13:53:43.348Z,102131.84
2023-04-27T13:55:44.898Z,102128.97
2023-04-27T13:57:46.390Z,102133.19
2023-04-27T13:59:47.818Z,102127.06
2023-04-27T14:01:49.311Z,102119.53
2023-04-27T14:03:50.835Z,102118.56
2023-04-27T14:05:52.481Z,102124.84
2023-04-27T14:07:53.937Z,102126.94
2023-04-27T14:09:55.375Z,102121.19
2023-04-27T14:11:57.737Z,102119.56
2023-04-27T14:13:59.296Z,102118.03
2023-04-27T14:16:00.747Z,102117.53
2023-04-27T14:18:06.365Z,102117.66
2023-04-27T14:20:08.529Z,102117.69
2023-04-27T14:22:10.171Z,102118.50
2023-04-27T14:24:11.604Z,102114.13
2023-04-27T14:26:13.136Z,102113.25
2023-04-27T14:28:14.900Z,102106.66
2023-04-27T14:30:16.652Z,102109.59
2023-04-27T14:32:18.226Z,102100.28
2023-04-27T14:34:21.509Z,102100.50
2023-04-27T14:36:23.175Z,102105.63
2023-04-27T14:38:24.793Z,102104.31
2023-04-27T14:40:26.281Z,102104.53
2023-04-27T14:42:27.892Z,102106.16
2023-04-27T14:44:29.540Z,102102.56
2023-04-27T14:46:31.062Z,102103.03
2023-04-27T14:48:32.977Z,102097.13
2023-04-27T14:50:34.626Z,102101.63
2023-04-27T14:52:36.355Z,102098.13
2023-04-27T14:54:38.764Z,102110.03
2023-04-27T14:56:40.279Z,102102.19
2023-04-27T14:58:41.875Z,102104.72
2023-04-27T15:00:43.525Z,102094.25
2023-04-27T15:02:45.956Z,102099.94
2023-04-27T15:04:47.480Z,102101.28
2023-04-27T15:06:48.969Z,102100.94
2023-04-27T15:08:50.404Z,102097.38
2023-04-27T15:10:53.940Z,102100.50
2023-04-27T15:12:55.487Z,102097.81
2023-04-27T15:14:56.946Z,102093.19
2023-04-27T15:16:58.393Z,102090.56
2023-04-27T15:18:59.820Z,102089.59
2023-04-27T15:21:01.323Z,102085.28
2023-04-27T15:23:02.903Z,102094.84
2023-04-27T15:25:04.759Z,102086.69
2023-04-27T15:27:08.394Z,102092.75
2023-04-27T15:29:11.224Z,102091.91
2023-04-27T15:31:12.796Z,102091.44
2023-04-27T15:33:15.453Z,102083.56
2023-04-27T15:35:17.022Z,102087.84
2023-04-27T15:37:18.589Z,102092.16
2023-04-27T15:39:20.098Z,102089.34
2023-04-27T15:41:22.055Z,102090.91
2023-04-27T15:43:23.840Z,102092.53
2023-04-27T15:45:25.805Z,102081.78
2023-04-27T15:47:27.471Z,102080.94
2023-04-27T15:49:29.921Z,102078.25
2023-04-27T15:51:31.435Z,102080.72
2023-04-27T15:53:32.983Z,102083.06
2023-04-27T15:55:34.441Z,102086.38
2023-04-27T15:57:35.909Z,102089.84
2023-04-27T15:59:37.565Z,102090.91
2023-04-27T16:01:39.180Z,102086.00
2023-04-27T16:03:40.757Z,102085.75
2023-04-27T16:05:42.372Z,102081.03
2023-04-27T16:07:44.923Z,102075.13
2023-04-27T16:09:46.433Z,102076.91
2023-04-27T16:11:47.930Z,102081.13
2023-04-27T16:13:49.388Z,102069.91
2023-04-27T16:15:50.955Z,102067.13
2023-04-27T16:17:52.438Z,102071.47
2023-04-27T16:19:53.898Z,102066.03
2023-04-27T16:21:55.406Z,102067.25
2023-04-27T16:23:56.920Z,102066.66
2023-04-27T16:25:58.390Z,102069.59
2023-04-27T16:27:59.901Z,102074.13
2023-04-27T16:30:01.391Z,102068.16
2023-04-27T16:32:03.029Z,102071.00
2023-04-27T16:34:05.193Z,102070.06
2023-04-27T16:36:06.838Z,102065.44
2023-04-27T16:38:08.333Z,102072.34
2023-04-27T16:40:10.184Z,102064.50
2023-04-27T16:42:13.403Z,102057.84
2023-04-27T16:44:15.382Z,102056.44
2023-04-27T16:46:17.473Z,102052.06
2023-04-27T16:48:19.099Z,102046.66
2023-04-27T16:50:20.876Z,102055.50
2023-04-27T16:52:22.337Z,102045.81
2023-04-27T16:54:23.785Z,102050.38
2023-04-27T16:56:29.881Z,102049.59
2023-04-27T16:58:32.894Z,102046.13
2023-04-27T17:00:34.440Z,102040.72
2023-04-27T17:02:36.172Z,102043.19
2023-04-27T17:04:40.162Z,102041.22
2023-04-27T17:06:42.035Z,102041.91
2023-04-27T17:08:43.475Z,102040.97
2023-04-27T17:10:45.487Z,102044.50
2023-04-27T17:12:47.065Z,102040.94
2023-04-27T17:14:48.553Z,102039.28
2023-04-27T17:16:50.000Z,102036.78
2023-04-27T17:18:51.487Z,102036.97
2023-04-27T17:20:53.238Z,102042.16
2023-04-27T17:22:54.715Z,102039.50
2023-04-27T17:24:56.434Z,102038.72
2023-04-27T17:26:57.955Z,102036.16
2023-04-27T17:29:01.285Z,102036.16
2023-04-27T17:31:02.884Z,102038.78
2023-04-27T17:33:04.585Z,102041.31
2023-04-27T17:35:06.422Z,102035.16
2023-04-27T17:37:08.488Z,102036.03
2023-04-27T17:39:10.314Z,102037.09
2023-04-27T17:41:11.820Z,102039.75
2023-04-27T17:43:13.289Z,102038.00
2023-04-27T17:45:15.388Z,102037.13
2023-04-27T17:47:18.957Z,102036.22
2023-04-27T17:49:20.477Z,102035.38
2023-04-27T17:51:22.021Z,102042.50
2023-04-27T17:53:23.461Z,102034.63
2023-04-27T17:55:24.916Z,102031.19
2023-04-27T17:57:26.388Z,102029.47
2023-04-27T17:59:28.879Z,102032.28
2023-04-27T18:01:30.729Z,102028.78
2023-04-27T18:03:32.474Z,102025.34
2023-04-27T18:05:34.060Z,102019.25
2023-04-27T18:07:38.606Z,102020.16
2023-04-27T18:09:40.052Z,102022.81
2023-04-27T18:11:41.501Z,102026.41
2023-04-27T18:13:43.050Z,102020.31
2023-04-27T18:15:44.604Z,102024.78
2023-04-27T18:17:46.164Z,102021.38
2023-04-27T18:19:57.985Z,102028.47
2023-04-27T18:22:06.023Z,102029.38
2023-04-27T18:24:08.479Z,102035.63
2023-04-27T18:26:11.614Z,102033.94
2023-04-27T18:28:13.196Z,102034.88
2023-04-27T18:30:14.758Z,102029.66
2023-04-27T18:32:16.312Z,102036.78
2023-04-27T18:34:17.825Z,102034.22
2023-04-27T18:36:19.756Z,102036.00
2023-04-27T18:38:21.240Z,102043.13
2023-04-27T18:40:23.276Z,102041.38
2023-04-27T18:42:24.844Z,102045.84
2023-04-27T18:44:26.742Z,102043.22
2023-04-27T18:46:28.222Z,102036.25
2023-04-27T18:48:29.724Z,102037.19
2023-04-27T18:50:31.638Z,102041.63
2023-04-27T18:52:33.162Z,102039.91
2023-04-27T18:54:34.635Z,102039.03
2023-04-27T18:56:36.244Z,102043.50
2023-04-27T18:58:37.733Z,102035.66
2023-04-27T19:00:39.301Z,102039.22
2023-04-27T19:02:40.896Z,102041.81
2023-04-27T19:04:45.576Z,102037.47
2023-04-27T19:06:54.463Z,102046.31
2023-04-27T19:08:56.498Z,102043.72
2023-04-27T19:10:58.588Z,102049.88
2023-04-27T19:13:00.640Z,102037.56
2023-04-27T19:15:02.215Z,102050.78
2023-04-27T19:17:03.977Z,102046.44
2023-04-27T19:19:05.643Z,102036.78
2023-04-27T19:21:09.970Z,102039.47
2023-04-27T19:23:12.612Z,102049.13
2023-04-27T19:25:14.231Z,102039.47
2023-04-27T19:27:16.279Z,102043.88
2023-04-27T19:29:18.027Z,102049.19
2023-04-27T19:31:19.612Z,102038.66
2023-04-27T19:33:21.757Z,102037.81
2023-04-27T19:35:23.705Z,102038.72
2023-04-27T19:37:27.845Z,102044.00
2023-04-27T19:39:29.419Z,102038.75
2023-04-27T19:41:30.919Z,102033.50
2023-04-27T19:43:33.482Z,102042.31
2023-04-27T19:45:35.001Z,102045.84
2023-04-27T19:47:36.773Z,102053.78
2023-04-27T19:49:38.870Z,102043.19
2023-04-27T19:51:42.379Z,102043.22
2023-04-27T19:53:43.901Z,102050.28
2023-04-27T19:55:45.583Z,102038.00
2023-04-27T19:57:47.040Z,102035.38
2023-04-27T19:59:48.722Z,102038.00
2023-04-27T20:01:50.226Z,102052.09
2023-04-27T20:03:53.441Z,102047.72
2023-04-27T20:05:55.820Z,102045.09
2023-04-27T20:07:57.579Z,102050.38
2023-04-27T20:09:59.056Z,102043.38
2023-04-27T20:12:00.535Z,102038.97
2023-04-27T20:14:02.059Z,102041.63
2023-04-27T20:16:05.071Z,102043.34
2023-04-27T20:18:06.666Z,102035.47
2023-04-27T20:20:10.645Z,102044.25
2023-04-27T20:22:12.730Z,102045.13
2023-04-27T20:24:14.461Z,102041.63
2023-04-27T20:26:16.170Z,102044.28
2023-04-27T20:28:18.012Z,102041.66
2023-04-27T20:30:19.595Z,102034.63
2023-04-27T20:32:21.346Z,102039.91
2023-04-27T20:34:22.935Z,102029.38
2023-04-27T20:36:24.470Z,102032.91
2023-04-27T20:38:25.981Z,102026.75
2023-04-27T20:40:27.602Z,102031.16
2023-04-27T20:42:29.659Z,102025.03
2023-04-27T20:44:32.268Z,102023.22
2023-04-27T20:46:33.779Z,102021.47
2023-04-27T20:48:35.517Z,102014.47
2023-04-27T20:50:37.307Z,102016.22
2023-04-27T20:52:38.842Z,102014.47
2023-04-27T20:54:40.332Z,102022.38
2023-04-27T20:56:41.852Z,102017.09
2023-04-27T20:58:43.308Z,102023.25
2023-04-27T21:00:44.885Z,102016.22
2023-04-27T21:02:48.154Z,102013.59
2023-04-27T21:04:49.713Z,102016.25
2023-04-27T21:06:51.162Z,102008.34
2023-04-27T21:08:52.718Z,102003.09
2023-04-27T21:10:54.210Z,102012.75
2023-04-27T21:12:55.886Z,102017.13
2023-04-27T21:14:57.341Z,102008.31
2023-04-27T21:16:58.844Z,102009.22
2023-04-27T21:19:00.477Z,102010.97
2023-04-27T21:21:01.989Z,102003.91
2023-04-27T21:23:03.512Z,102003.03
2023-04-27T21:25:05.333Z,102000.41
2023-04-27T21:27:06.769Z,102001.28
2023-04-27T21:29:08.381Z,101998.66
2023-04-27T21:31:09.969Z,101996.91
2023-04-27T21:33:11.518Z,101991.63
2023-04-27T21:35:13.057Z,101996.91
2023-04-27T21:37:14.520Z,101984.63
2023-04-27T21:39:16.032Z,101982.00
2023-04-27T21:41:17.588Z,101982.00
2023-04-27T21:43:19.059Z,101975.84
2023-04-27T21:45:21.258Z,101976.72
2023-04-27T21:47:22.947Z,101977.59
2023-04-27T21:49:24.446Z,101978.47
2023-04-27T21:51:26.407Z,101972.34
2023-04-27T21:53:29.760Z,101971.47
2023-04-27T21:55:31.263Z,101971.44
2023-04-27T21:57:32.758Z,101974.94
2023-04-27T21:59:34.205Z,101979.31
2023-04-27T22:01:35.700Z,101977.56
2023-04-27T22:03:38.165Z,101969.66
2023-04-27T22:05:39.925Z,101972.31
2023-04-27T22:07:41.479Z,101963.53
2023-04-27T22:09:43.221Z,101964.41
2023-04-27T22:11:44.691Z,101961.78
2023-04-27T22:13:46.544Z,101959.16
2023-04-27T22:15:48.664Z,101958.28
2023-04-27T22:17:51.278Z,101960.91
2023-04-27T22:19:52.960Z,101961.78
2023-04-27T22:21:54.824Z,101956.50
2023-04-27T22:23:56.584Z,101953.00
2023-04-27T22:25:58.062Z,101950.38
2023-04-27T22:27:59.530Z,101953.00
2023-04-27T22:30:00.987Z,101951.22
2023-04-27T22:32:02.561Z,101944.22
2023-04-27T22:34:04.726Z,101933.72
2023-04-27T22:36:06.564Z,101944.19
2023-04-27T22:38:08.881Z,101937.16
2023-04-27T22:40:11.663Z,101942.41
2023-04-27T22:42:13.172Z,101945.03
2023-04-27T22:44:14.803Z,101943.28
2023-04-27T22:46:16.579Z,101941.53
2023-04-27T22:48:18.558Z,101937.16
2023-04-27T22:50:20.232Z,101935.38
2023-04-27T22:52:24.485Z,101936.25
2023-04-27T22:54:26.439Z,101931.00
2023-04-27T22:56:27.934Z,101925.75
2023-04-27T22:58:29.562Z,101930.97
2023-04-27T23:00:31.464Z,101924.84
2023-04-27T23:02:33.115Z,101928.34
2023-04-27T23:04:34.733Z,101923.94
2023-04-27T23:06:36.291Z,101922.19
2023-04-27T23:08:37.748Z,101918.69
2023-04-27T23:10:39.981Z,101917.81
2023-04-27T23:12:41.585Z,101912.53
2023-04-27T23:14:43.213Z,101908.13
2023-04-27T23:16:46.379Z,101903.75
2023-04-27T23:18:47.844Z,101907.22